Resums METAR propers

 

KSJC - San Jose, California, USA
Distància des de l'estació: NE 14km
Actualització: 24/09/2017 21:53 UTC
Molt cobert
Molt cobert
 Vent del NO
Vent: NO 20 km/h
Temperatura: 28°C
Rosada: 1°C
Humitat: 17%
Baròmetre: 1012.9 hPa
Nuvolositat: Molt cobert
Visibilitat: 16 km
Detalls nuvolositat: Alguns núvols 1981 m
Parcialment cobert 3048 m
Molt cobert 4877 m
2017/09/24 21:53 KSJC 242153Z 31011KT 10SM FEW065 SCT100 BKN160 28/01 A2991 RMK AO2 SLP128 T02830011 $
KNUQ - Moffett Nas/Mtn, California, USA
Distància des de l'estació: N 14km
Actualització: 24/09/2017 21:56 UTC
Seré
Seré
 Vent del NO
Vent: NO 13 km/h, Ràfega: 28 km/h
Temperatura: 28°C
Rosada: 1°C
Humitat: 17%
Baròmetre: 1013.2 hPa
Nuvolositat: Seré
Visibilitat: 16 km
2017/09/24 21:56 KNUQ 242156Z 32007G15KT 10SM CLR 28/01 A2992 RMK AO2 SLP134 T02780006
 
KPAO - Palo Alto, California, USA
Distància des de l'estació: NNO 23km
Actualització: 24/09/2017 21:47 UTC
Parcialment cobert
Parcialment cobert
 Vent del NO
Vent: NO 19 km/h
Temperatura: 28°C
Rosada: 4°C
Humitat: 21%
Baròmetre: 1013.2 hPa
Nuvolositat: Parcialment cobert
Visibilitat: 16 km
Detalls nuvolositat: Parcialment cobert 4572 m
2017/09/24 21:47 KPAO 242147Z 31010KT 10SM SCT150 28/04 A2992
KRHV - San Jose/Reid, California, USA
Distància des de l'estació: ENE 19km
Actualització: 24/09/2017 22:47 UTC
Molt cobert
Molt cobert
 Vent del O
Vent: O 19 km/h
Temperatura: 28°C
Rosada: 2°C
Humitat: 19%
Baròmetre: 1013.2 hPa
Nuvolositat: Molt cobert
Visibilitat: 16 km
Detalls nuvolositat: Molt cobert 4877 m
2017/09/24 22:47 KRHV 242247Z 28010KT 10SM BKN160 28/02 A2992
 
KOAK - Oakland, California, USA
Distància des de l'estació: NNO 50km
Actualització: 24/09/2017 21:53 UTC
Molt cobert
Molt cobert
 Vent del O
Vent: O 24 km/h
Temperatura: 24°C
Rosada: 11°C
Humitat: 44%
Baròmetre: 1013.2 hPa
Nuvolositat: Molt cobert
Visibilitat: 16 km
Detalls nuvolositat: Molt cobert 6096 m
2017/09/24 21:53 KOAK 242153Z 27013KT 10SM BKN200 24/11 A2992 RMK AO2 SLP131 T02440111
KSQL - San Carlos Airpo, California, USA
Distància des de l'estació: NO 34km
Actualització: 24/09/2017 22:47 UTC
Molt cobert
Molt cobert
 Vent del NO
Vent: NO 11 km/h
Temperatura: 27°C
Rosada: 2°C
Humitat: 20%
Baròmetre: 1013.2 hPa
Nuvolositat: Molt cobert
Visibilitat: 16 km
Detalls nuvolositat: Molt cobert 6096 m
2017/09/24 22:47 KSQL 242247Z 31006KT 10SM BKN200 27/02 A2992
 
KSFO - San Francisco, California, USA
Distància des de l'estació: NO 49km
Actualització: 24/09/2017 21:56 UTC
Molt cobert
Molt cobert
 Vent del O
Vent: O 30 km/h
Temperatura: 26°C
Rosada: 3°C
Humitat: 23%
Baròmetre: 1013.2 hPa
Nuvolositat: Molt cobert
Visibilitat: 16 km
Detalls nuvolositat: Molt cobert 6096 m
2017/09/24 21:56 KSFO 242156Z 28016KT 10SM BKN200 26/03 A2992 RMK AO2 WSHFT 2120 SLP133 T02610028
KE16 - San Martin, California, USA
Distància des de l'estació: ESE 43km
Actualització: 24/09/2017 22:35 UTC
Seré
Seré
 Vent del NO
Vent: NO 20 km/h, Ràfega: 30 km/h
Temperatura: 27°C
Rosada: 0°C
Humitat: 17%
Baròmetre: 1012.5 hPa
Nuvolositat: Seré
Visibilitat: 16 km
2017/09/24 22:35 KE16 242235Z AUTO 31011G16KT 10SM CLR 27/00 A2990 RMK AO2
 
KWVI - Watsonville, California, USA
Distància des de l'estació: SSE 44km
Actualització: 24/09/2017 21:53 UTC
Seré
Seré
 Vent del SSO
Vent: SSO 11 km/h
Temperatura: 24°C
Rosada: 6°C
Humitat: 31%
Baròmetre: 1013.2 hPa
Nuvolositat: Seré
Visibilitat: 16 km
2017/09/24 21:53 KWVI 242153Z AUTO 21006KT 10SM CLR 24/06 A2992 RMK AO2 SLP130 T02440061
KHAF - Half Moon Bay, California, USA
Distància des de l'estació: ONO 50km
Actualització: 24/09/2017 22:35 UTC
Seré
Seré
 Vent del NNO
Vent: NNO 24 km/h
Temperatura: 23°C
Baròmetre: 1012.9 hPa
Nuvolositat: Seré
Visibilitat: 16 km
2017/09/24 22:35 KHAF 242235Z AUTO 34013KT 10SM CLR 23/ A2991 RMK AO2
 
KHWD - Hayward, California, USA
Distància des de l'estació: N 44km
Actualització: 24/09/2017 21:54 UTC
Seré
Seré
 Vent del ONO
Vent: ONO 17 km/h
Temperatura: 27°C
Rosada: -1°C
Humitat: 16%
Baròmetre: 1012.9 hPa
Nuvolositat: Seré
Visibilitat: 16 km
2017/09/24 21:54 KHWD 242154Z 29009KT 10SM CLR 27/M01 A2991 RMK AO2 SLP138 T02721011
KLVK - Livermore, California, USA
Distància des de l'estació: NNE 51km
Actualització: 24/09/2017 21:53 UTC
Seré
Seré
 Vent del NNO
Vent: NNO 19 km/h
Temperatura: 27°C
Rosada: -1°C
Humitat: 16%
Baròmetre: 1012.9 hPa
Nuvolositat: Seré
Visibilitat: 16 km
2017/09/24 21:53 KLVK 242153Z 33010KT 10SM CLR 27/M01 A2991 RMK AO2 SLP127 T02671006